Map

Track Data

SID SEASON NUMBER BASIN SUBBASIN NAME ISO_TIME NATURE LAT LON WMO_WIND WMO_PRES WMO_AGENCY TRACK_TYPE DIST2LAND LANDFALL IFLAG USA_AGENCY USA_ATCF_ID USA_LAT USA_LON USA_RECORD USA_STATUS USA_WIND USA_PRES USA_SSHS USA_R34_NE USA_R34_SE USA_R34_SW USA_R34_NW USA_R50_NE USA_R50_SE USA_R50_SW USA_R50_NW USA_R64_NE USA_R64_SE USA_R64_SW USA_R64_NW USA_POCI USA_ROCI USA_RMW USA_EYE TOKYO_LAT TOKYO_LON TOKYO_GRADE TOKYO_WIND TOKYO_PRES TOKYO_R50_DIR TOKYO_R50_LONG TOKYO_R50_SHORT TOKYO_R30_DIR TOKYO_R30_LONG TOKYO_R30_SHORT TOKYO_LAND CMA_LAT CMA_LON CMA_CAT CMA_WIND CMA_PRES HKO_LAT HKO_LON HKO_CAT HKO_WIND HKO_PRES NEWDELHI_LAT NEWDELHI_LON NEWDELHI_GRADE NEWDELHI_WIND NEWDELHI_PRES NEWDELHI_CI NEWDELHI_DP NEWDELHI_POCI REUNION_LAT REUNION_LON REUNION_TYPE REUNION_WIND REUNION_PRES REUNION_TNUM REUNION_CI REUNION_RMW REUNION_R34_NE REUNION_R34_SE REUNION_R34_SW REUNION_R34_NW REUNION_R50_NE REUNION_R50_SE REUNION_R50_SW REUNION_R50_NW REUNION_R64_NE REUNION_R64_SE REUNION_R64_SW REUNION_R64_NW BOM_LAT BOM_LON BOM_TYPE BOM_WIND BOM_PRES BOM_TNUM BOM_CI BOM_RMW BOM_R34_NE BOM_R34_SE BOM_R34_SW BOM_R34_NW BOM_R50_NE BOM_R50_SE BOM_R50_SW BOM_R50_NW BOM_R64_NE BOM_R64_SE BOM_R64_SW BOM_R64_NW BOM_ROCI BOM_POCI BOM_EYE BOM_POS_METHOD BOM_PRES_METHOD NADI_LAT NADI_LON NADI_CAT NADI_WIND NADI_PRES WELLINGTON_LAT WELLINGTON_LON WELLINGTON_WIND WELLINGTON_PRES DS824_LAT DS824_LON DS824_STAGE DS824_WIND DS824_PRES TD9636_LAT TD9636_LON TD9636_STAGE TD9636_WIND TD9636_PRES TD9635_LAT TD9635_LON TD9635_WIND TD9635_PRES TD9635_ROCI NEUMANN_LAT NEUMANN_LON NEUMANN_CLASS NEUMANN_WIND NEUMANN_PRES MLC_LAT MLC_LON MLC_CLASS MLC_WIND MLC_PRES USA_GUST BOM_GUST BOM_GUST_PER REUNION_GUST REUNION_GUST_PER USA_SEAHGT USA_SEARAD_NE USA_SEARAD_SE USA_SEARAD_SW USA_SEARAD_NW STORM_SPEED STORM_DIR
1905021S09049 1905 3 SI MM NOT_NAMED 1905-01-21 06:00:00 NR -8.80000 48.9000 reunion main 371 371 _____O________ -1 -8.80000 48.9000 99 9.90000 1 320
1905021S09049 1905 3 SI MM NOT_NAMED 1905-01-21 09:00:00 NR -8.76986 48.8744 main 371 371 _____P________ -1 -8.76986 48.8744 99 1 314
1905021S09049 1905 3 SI MM NOT_NAMED 1905-01-21 12:00:00 NR -8.75213 48.8394 main 372 372 _____P________ -1 -8.75213 48.8394 99 1 277
1905021S09049 1905 3 SI MM NOT_NAMED 1905-01-21 15:00:00 NR -8.75921 48.7855 main 372 372 _____P________ -1 -8.75921 48.7855 99 1 250
1905021S09049 1905 3 SI MM NOT_NAMED 1905-01-21 18:00:00 NR -8.80347 48.7033 main 373 364 _____P________ -1 -8.80347 48.7033 99 2 236
1905021S09049 1905 3 SI MM NOT_NAMED 1905-01-21 21:00:00 NR -8.89729 48.5832 main 364 355 _____P________ -1 -8.89729 48.5832 99 4 229
1905021S09049 1905 3 SI MM NOT_NAMED 1905-01-22 00:00:00 NR -9.05307 48.4158 main 347 332 _____P________ -1 -9.05307 48.4158 99 5 225
1905021S09049 1905 3 SI MM NOT_NAMED 1905-01-22 03:00:00 NR -9.28318 48.1914 main 332 313 _____P________ -1 -9.28318 48.1914 99 8 223
1905021S09049 1905 3 SI MM NOT_NAMED 1905-01-22 06:00:00 NR -9.60000 47.9000 reunion main 313 293 _____O________ -1 -9.60000 47.9000 99 9.90000 10 222
1905021S09049 1905 3 SI MM NOT_NAMED 1905-01-22 09:00:00 NR -10.0100 47.5364 main 299 289 _____P________ -1 -10.0100 47.5364 99 12 221
1905021S09049 1905 3 SI MM NOT_NAMED 1905-01-22 12:00:00 NR -10.4958 47.1140 main 289 281 _____P________ -1 -10.4958 47.1140 99 14 220
1905021S09049 1905 3 SI MM NOT_NAMED 1905-01-22 15:00:00 NR -11.0341 46.6514 main 283 283 _____P________ -1 -11.0341 46.6514 99 15 220
1905021S09049 1905 3 SI MM NOT_NAMED 1905-01-22 18:00:00 NR -11.6017 46.1673 main 297 288 _____P________ -1 -11.6017 46.1673 99 15 220
1905021S09049 1905 3 SI MM NOT_NAMED 1905-01-22 21:00:00 NR -12.1751 45.6806 main 291 291 _____P________ -1 -12.1751 45.6806 99 15 220
1905021S09049 1905 3 SI MM NOT_NAMED 1905-01-23 00:00:00 NR -12.7312 45.2107 main 313 309 _____P________ -1 -12.7312 45.2107 99 14 219
1905021S09049 1905 3 SI MM NOT_NAMED 1905-01-23 03:00:00 NR -13.2471 44.7773 main 313 268 _____P________ -1 -13.2471 44.7773 99 13 219
1905021S09049 1905 3 SI MM NOT_NAMED 1905-01-23 06:00:00 NR -13.7000 44.4000 reunion main 268 254 _____O________ -1 -13.7000 44.4000 99 9.90000 10 222
1905021S09049 1905 3 SI MM NOT_NAMED 1905-01-23 09:00:00 NR -13.9612 44.1258 main 248 239 _____P________ -1 -13.9612 44.1258 99 7 226
1905021S09049 1905 3 SI MM NOT_NAMED 1905-01-23 12:00:00 NR -14.1624 43.9002 main 239 232 _____P________ -1 -14.1624 43.9002 99 5 228
1905021S09049 1905 3 SI MM NOT_NAMED 1905-01-23 15:00:00 NR -14.3231 43.7186 main 236 218 _____P________ -1 -14.3231 43.7186 99 4 226
1905021S09049 1905 3 SI MM NOT_NAMED 1905-01-23 18:00:00 NR -14.4628 43.5762 main 218 213 _____P________ -1 -14.4628 43.5762 99 4 221
1905021S09049 1905 3 SI MM NOT_NAMED 1905-01-23 21:00:00 NR -14.6009 43.4680 main 213 208 _____P________ -1 -14.6009 43.4680 99 3 211
1905021S09049 1905 3 SI MM NOT_NAMED 1905-01-24 00:00:00 NR -14.7569 43.3892 main 199 189 _____P________ -1 -14.7569 43.3892 99 4 201
1905021S09049 1905 3 SI MM NOT_NAMED 1905-01-24 03:00:00 NR -14.9501 43.3349 main 187 170 _____P________ -1 -14.9501 43.3349 99 5 191
1905021S09049 1905 3 SI MM NOT_NAMED 1905-01-24 06:00:00 NR -15.2000 43.3000 reunion main 170 150 _____O________ -1 -15.2000 43.3000 99 9.90000 7 190
1905021S09049 1905 3 SI MM NOT_NAMED 1905-01-24 09:00:00 NR -15.5871 43.2176 main 150 132 _____P________ -1 -15.5871 43.2176 99 8 189
1905021S09049 1905 3 SI MM NOT_NAMED 1905-01-24 12:00:00 NR -16.0263 43.1557 main 132 130 _____P________ -1 -16.0263 43.1557 99 9 186
1905021S09049 1905 3 SI MM NOT_NAMED 1905-01-24 15:00:00 NR -16.5059 43.1175 main 132 101 _____P________ -1 -16.5059 43.1175 99 10 182
1905021S09049 1905 3 SI MM NOT_NAMED 1905-01-24 18:00:00 NR -17.0142 43.1062 main 101 84 _____P________ -1 -17.0142 43.1062 99 10 0
1905021S09049 1905 3 SI MM NOT_NAMED 1905-01-24 21:00:00 NR -17.5394 43.1254 main 84 84 _____P________ -1 -17.5394 43.1254 99 11 176
1905021S09049 1905 3 SI MM NOT_NAMED 1905-01-25 00:00:00 NR -18.0699 43.1784 main 84 74 _____P________ -1 -18.0699 43.1784 99 11 172
1905021S09049 1905 3 SI MM NOT_NAMED 1905-01-25 03:00:00 NR -18.5940 43.2687 main 77 77 _____P________ -1 -18.5940 43.2687 99 11 168
1905021S09049 1905 3 SI MM NOT_NAMED 1905-01-25 06:00:00 NR -19.1000 43.4000 reunion main 84 76 _____O________ -1 -19.1000 43.4000 99 9.90000 10 164
1905021S09049 1905 3 SI MM NOT_NAMED 1905-01-25 09:00:00 NR -19.5381 43.5491 main 86 73 _____P________ -1 -19.5381 43.5491 99 9 160
1905021S09049 1905 3 SI MM NOT_NAMED 1905-01-25 12:00:00 NR -19.9632 43.7393 main 69 15 _____P________ -1 -19.9632 43.7393 99 9 155
1905021S09049 1905 3 SI MM NOT_NAMED 1905-01-25 15:00:00 NR -20.3783 43.9681 main 15 0 _____P________ -1 -20.3783 43.9681 99 9 151
1905021S09049 1905 3 SI MM NOT_NAMED 1905-01-25 18:00:00 NR -20.7860 44.2329 main 0 0 _____P________ -1 -20.7860 44.2329 99 10 147
1905021S09049 1905 3 SI MM NOT_NAMED 1905-01-25 21:00:00 NR -21.1892 44.5310 main 0 0 _____P________ -1 -21.1892 44.5310 99 10 144
1905021S09049 1905 3 SI MM NOT_NAMED 1905-01-26 00:00:00 NR -21.5907 44.8600 main 0 0 _____P________ -1 -21.5907 44.8600 99 10 142
1905021S09049 1905 3 SI MM NOT_NAMED 1905-01-26 03:00:00 NR -21.9934 45.2171 main 0 0 _____P________ -1 -21.9934 45.2171 99 11 140
1905021S09049 1905 3 SI MM NOT_NAMED 1905-01-26 06:00:00 NR -22.4000 45.6000 reunion main 0 0 _____O________ -1 -22.4000 45.6000 99 9.90000 12 139
1905021S09049 1905 3 SI MM NOT_NAMED 1905-01-26 09:00:00 NR -22.8722 46.0416 main 0 0 _____P________ -1 -22.8722 46.0416 99 13 138
1905021S09049 1905 3 SI MM NOT_NAMED 1905-01-26 12:00:00 NR -23.3527 46.5217 main 0 0 _____P________ -1 -23.3527 46.5217 99 13 137
1905021S09049 1905 3 SI MM NOT_NAMED 1905-01-26 15:00:00 NR -23.8302 47.0247 main 0 0 _____P________ -1 -23.8302 47.0247 99 13 135
1905021S09049 1905 3 SI MM NOT_NAMED 1905-01-26 18:00:00 NR -24.2940 47.5342 main 15 15 _____P________ -1 -24.2940 47.5342 99 13 134
1905021S09049 1905 3 SI MM NOT_NAMED 1905-01-26 21:00:00 NR -24.7333 48.0338 main 74 74 _____P________ -1 -24.7333 48.0338 99 12 134
1905021S09049 1905 3 SI MM NOT_NAMED 1905-01-27 00:00:00 NR -25.1376 48.5062 main 138 138 _____P________ -1 -25.1376 48.5062 99 11 133
1905021S09049 1905 3 SI MM NOT_NAMED 1905-01-27 03:00:00 NR -25.4965 48.9342 main 189 189 _____P________ -1 -25.4965 48.9342 99 10 133
1905021S09049 1905 3 SI MM NOT_NAMED 1905-01-27 06:00:00 NR -25.8000 49.3000 reunion main 238 238 _____O________ -1 -25.8000 49.3000 99 9.90000 8 133
1905021S09049 1905 3 SI MM NOT_NAMED 1905-01-27 09:00:00 NR -26.0412 49.5903 main 274 274 _____P________ -1 -26.0412 49.5903 99 6 133
1905021S09049 1905 3 SI MM NOT_NAMED 1905-01-27 12:00:00 NR -26.2256 49.8101 main 301 301 _____P________ -1 -26.2256 49.8101 99 5 133
1905021S09049 1905 3 SI MM NOT_NAMED 1905-01-27 15:00:00 NR -26.3616 49.9689 main 329 329 _____P________ -1 -26.3616 49.9689 99 3 134
1905021S09049 1905 3 SI MM NOT_NAMED 1905-01-27 18:00:00 NR -26.4573 50.0766 main 343 343 _____P________ -1 -26.4573 50.0766 99 2 135
1905021S09049 1905 3 SI MM NOT_NAMED 1905-01-27 21:00:00 NR -26.5210 50.1434 main 343 343 _____P________ -1 -26.5210 50.1434 99 1 139
1905021S09049 1905 3 SI MM NOT_NAMED 1905-01-28 00:00:00 NR -26.5607 50.1794 main 357 357 _____P________ -1 -26.5607 50.1794 99 1 143
1905021S09049 1905 3 SI MM NOT_NAMED 1905-01-28 03:00:00 NR -26.5843 50.1949 main 357 357 _____P________ -1 -26.5843 50.1949 99 0 174
1905021S09049 1905 3 SI MM NOT_NAMED 1905-01-28 06:00:00 NR -26.6000 50.2000 reunion main 357 _____O________ -1 -26.6000 50.2000 99 9.90000 0 0

About IBTrACS Database

This database is a web-friendly format of International Best Track Archive for Climate Stewardship (IBTrACS), a global best track data archive curated by NOAA dating back to 1842.

Updated: 2021-10-21